Strona główna
METAR-TAF:

METAR-TAF

Lotnisko :

Parnaíba, Piauí, Brazylia

Szerokość geograficzna: 02-55S, Długość geograficzna: 041-45W, wysokość: 5 m

Aktualna obserwacja pogody

Raport powstał 7 godziny i 4 minut temu, godzina 21:00 UTC
Wiatr 6 kt od północny wschód
Temperatura 29°C
Wilgotność 74%
Ciśnienie
Widzialność 10 km lub więcej
Mało chmury na wysokości 1700 ft

METAR: SBPB 272100Z 05006KT 9999 FEW017 29/24 Q////

czas: 01:04 (04:04 UTC)

Prognoza

Raport powstał 7 godziny i 4 minut temu, godzina 21:00 UTC
Prognoza ważna od 28 godzina 00 UTC do 28 godzina 12 UTC
Wiatr 5 kt od wschodnio-północny wschód
Widzialność 10 km lub więcej
Brak chmur poniżej 1500 m i brak chmur cumulonimbus

TAF: SBPB 272100Z 2800/2812 07005KT CAVOK TN24/2808Z TX28/2812Z RMK PDV

Obserwacja i prognoza pogody dla ponad 4000 lotnisk (raport METAR i TAF).

Dostępne stacje oznaczono żółtymi i czerwonymi punktami na mapie.

Najedź kursorem aby zobaczyć nazwę stacji.

Kliknij aby zobaczyć obserwacje i prognozy pogody.

Aby zmienić mapę: kliknij na zielony przycisk z czarnym krzyżykiem, aby powiększyć; na zielony przycisk z myślnikiem, aby pomniejszyć; na zielone strzałki, aby przejść do map sąsiednich.


METAR-TAF: